sensor_id;sensor_type;location;lat;lon;timestamp;P1;durP1;ratioP1;P2;durP2;ratioP2
1719;SDS011;857;52.872;9.692;2023-07-28T00:01:57;1.50;;;1.40;;
1719;SDS011;857;52.872;9.692;2023-07-28T00:04:25;2.87;;;2.63;;
1719;SDS011;857;52.872;9.692;2023-07-28T00:06:52;2.13;;;1.93;;
1719;SDS011;857;52.872;9.692;2023-07-28T00:09:20;2.53;;;2.33;;
1719;SDS011;857;52.872;9.692;2023-07-28T00:11:48;2.40;;;2.20;;
1719;SDS011;857;52.872;9.692;2023-07-28T00:14:16;2.50;;;2.30;;
1719;SDS011;857;52.872;9.692;2023-07-28T00:16:44;4.50;;;2.80;;
1719;SDS011;857;52.872;9.692;2023-07-28T00:19:13;1.93;;;1.77;;
1719;SDS011;857;52.872;9.692;2023-07-28T00:21:41;4.07;;;3.50;;
1719;SDS011;857;52.872;9.692;2023-07-28T00:24:08;2.97;;;2.67;;
1719;SDS011;857;52.872;9.692;2023-07-28T00:26:36;3.23;;;2.93;;
1719;SDS011;857;52.872;9.692;2023-07-28T00:29:04;2.53;;;2.33;;
1719;SDS011;857;52.872;9.692;2023-07-28T00:31:33;1.73;;;1.63;;
1719;SDS011;857;52.872;9.692;2023-07-28T00:34:01;2.00;;;1.90;;
1719;SDS011;857;52.872;9.692;2023-07-28T00:36:30;3.90;;;3.50;;
1719;SDS011;857;52.872;9.692;2023-07-28T00:38:58;3.43;;;2.43;;
1719;SDS011;857;52.872;9.692;2023-07-28T00:41:26;5.07;;;3.73;;
1719;SDS011;857;52.872;9.692;2023-07-28T00:43:52;4.37;;;3.70;;
1719;SDS011;857;52.872;9.692;2023-07-28T00:46:20;3.13;;;1.33;;
1719;SDS011;857;52.872;9.692;2023-07-28T00:48:48;1.97;;;1.77;;
1719;SDS011;857;52.872;9.692;2023-07-28T00:51:16;4.67;;;4.27;;
1719;SDS011;857;52.872;9.692;2023-07-28T00:53:45;3.23;;;2.93;;
1719;SDS011;857;52.872;9.692;2023-07-28T00:56:13;4.67;;;3.40;;
1719;SDS011;857;52.872;9.692;2023-07-28T00:58:41;6.50;;;3.57;;
1719;SDS011;857;52.872;9.692;2023-07-28T01:01:09;2.57;;;2.37;;
1719;SDS011;857;52.872;9.692;2023-07-28T01:03:37;1.50;;;1.37;;
1719;SDS011;857;52.872;9.692;2023-07-28T01:06:13;1.50;;;1.30;;
1719;SDS011;857;52.872;9.692;2023-07-28T01:08:42;1.60;;;1.50;;
1719;SDS011;857;52.872;9.692;2023-07-28T01:11:12;2.93;;;2.40;;
1719;SDS011;857;52.872;9.692;2023-07-28T01:13:41;1.43;;;1.30;;
1719;SDS011;857;52.872;9.692;2023-07-28T01:16:08;3.07;;;2.77;;
1719;SDS011;857;52.872;9.692;2023-07-28T01:18:36;3.40;;;3.10;;
1719;SDS011;857;52.872;9.692;2023-07-28T01:21:05;3.07;;;2.73;;
1719;SDS011;857;52.872;9.692;2023-07-28T01:23:36;2.77;;;2.50;;
1719;SDS011;857;52.872;9.692;2023-07-28T01:26:05;4.03;;;3.40;;
1719;SDS011;857;52.872;9.692;2023-07-28T01:28:35;5.93;;;4.00;;
1719;SDS011;857;52.872;9.692;2023-07-28T01:31:04;3.40;;;2.63;;
1719;SDS011;857;52.872;9.692;2023-07-28T01:33:32;2.10;;;1.90;;
1719;SDS011;857;52.872;9.692;2023-07-28T01:36:00;2.60;;;2.20;;
1719;SDS011;857;52.872;9.692;2023-07-28T01:38:27;4.20;;;2.60;;
1719;SDS011;857;52.872;9.692;2023-07-28T01:40:55;3.20;;;2.53;;
1719;SDS011;857;52.872;9.692;2023-07-28T01:43:23;1.50;;;1.40;;
1719;SDS011;857;52.872;9.692;2023-07-28T01:45:52;1.97;;;1.77;;
1719;SDS011;857;52.872;9.692;2023-07-28T01:48:19;2.53;;;2.23;;
1719;SDS011;857;52.872;9.692;2023-07-28T01:50:47;2.07;;;1.87;;
1719;SDS011;857;52.872;9.692;2023-07-28T01:53:15;2.00;;;1.80;;
1719;SDS011;857;52.872;9.692;2023-07-28T01:55:43;2.20;;;1.87;;
1719;SDS011;857;52.872;9.692;2023-07-28T01:58:10;0.90;;;0.90;;
1719;SDS011;857;52.872;9.692;2023-07-28T02:00:38;1.97;;;1.73;;
1719;SDS011;857;52.872;9.692;2023-07-28T02:03:07;2.20;;;2.00;;
1719;SDS011;857;52.872;9.692;2023-07-28T02:05:35;1.40;;;1.30;;
1719;SDS011;857;52.872;9.692;2023-07-28T02:08:03;3.20;;;2.03;;
1719;SDS011;857;52.872;9.692;2023-07-28T02:10:30;1.90;;;1.70;;
1719;SDS011;857;52.872;9.692;2023-07-28T02:12:58;5.80;;;1.97;;
1719;SDS011;857;52.872;9.692;2023-07-28T02:15:26;3.20;;;1.70;;
1719;SDS011;857;52.872;9.692;2023-07-28T02:17:53;2.13;;;1.73;;
1719;SDS011;857;52.872;9.692;2023-07-28T02:20:22;2.50;;;2.07;;
1719;SDS011;857;52.872;9.692;2023-07-28T02:22:50;1.93;;;1.63;;
1719;SDS011;857;52.872;9.692;2023-07-28T02:25:18;2.20;;;1.90;;
1719;SDS011;857;52.872;9.692;2023-07-28T02:27:46;1.20;;;1.10;;
1719;SDS011;857;52.872;9.692;2023-07-28T02:30:14;1.00;;;0.90;;
1719;SDS011;857;52.872;9.692;2023-07-28T02:32:42;1.30;;;1.20;;
1719;SDS011;857;52.872;9.692;2023-07-28T02:35:09;1.20;;;1.00;;
1719;SDS011;857;52.872;9.692;2023-07-28T02:37:38;0.93;;;0.60;;
1719;SDS011;857;52.872;9.692;2023-07-28T02:40:07;0.80;;;0.80;;
1719;SDS011;857;52.872;9.692;2023-07-28T02:42:35;2.03;;;1.00;;
1719;SDS011;857;52.872;9.692;2023-07-28T02:45:03;0.80;;;0.80;;
1719;SDS011;857;52.872;9.692;2023-07-28T02:47:30;1.00;;;0.80;;
1719;SDS011;857;52.872;9.692;2023-07-28T02:49:58;1.23;;;1.00;;
1719;SDS011;857;52.872;9.692;2023-07-28T02:52:26;1.20;;;1.10;;
1719;SDS011;857;52.872;9.692;2023-07-28T02:54:55;1.20;;;0.90;;
1719;SDS011;857;52.872;9.692;2023-07-28T02:57:23;1.10;;;1.00;;
1719;SDS011;857;52.872;9.692;2023-07-28T02:59:51;1.73;;;0.93;;
1719;SDS011;857;52.872;9.692;2023-07-28T03:02:19;0.70;;;0.60;;
1719;SDS011;857;52.872;9.692;2023-07-28T03:04:47;0.80;;;0.50;;
1719;SDS011;857;52.872;9.692;2023-07-28T03:07:15;0.80;;;0.53;;
1719;SDS011;857;52.872;9.692;2023-07-28T03:09:46;0.90;;;0.60;;
1719;SDS011;857;52.872;9.692;2023-07-28T03:12:15;1.30;;;1.03;;
1719;SDS011;857;52.872;9.692;2023-07-28T03:14:43;1.03;;;0.63;;
1719;SDS011;857;52.872;9.692;2023-07-28T03:17:11;0.83;;;0.70;;
1719;SDS011;857;52.872;9.692;2023-07-28T03:19:38;1.43;;;1.17;;
1719;SDS011;857;52.872;9.692;2023-07-28T03:22:06;0.80;;;0.70;;
1719;SDS011;857;52.872;9.692;2023-07-28T03:24:34;0.80;;;0.80;;
1719;SDS011;857;52.872;9.692;2023-07-28T03:27:02;0.73;;;0.60;;
1719;SDS011;857;52.872;9.692;2023-07-28T03:32:07;0.87;;;0.53;;
1719;SDS011;857;52.872;9.692;2023-07-28T03:34:35;1.43;;;0.60;;
1719;SDS011;857;52.872;9.692;2023-07-28T03:37:05;1.80;;;0.40;;
1719;SDS011;857;52.872;9.692;2023-07-28T03:39:35;1.00;;;0.73;;
1719;SDS011;857;52.872;9.692;2023-07-28T03:42:03;1.27;;;0.93;;
1719;SDS011;857;52.872;9.692;2023-07-28T03:44:30;0.93;;;0.47;;
1719;SDS011;857;52.872;9.692;2023-07-28T03:46:59;0.60;;;0.40;;
1719;SDS011;857;52.872;9.692;2023-07-28T03:49:28;0.70;;;0.70;;
1719;SDS011;857;52.872;9.692;2023-07-28T03:51:56;0.67;;;0.67;;
1719;SDS011;857;52.872;9.692;2023-07-28T03:54:23;0.63;;;0.33;;
1719;SDS011;857;52.872;9.692;2023-07-28T03:56:51;0.63;;;0.63;;
1719;SDS011;857;52.872;9.692;2023-07-28T03:59:19;1.23;;;0.50;;
1719;SDS011;857;52.872;9.692;2023-07-28T04:01:47;0.73;;;0.60;;
1719;SDS011;857;52.872;9.692;2023-07-28T04:04:15;0.70;;;0.50;;
1719;SDS011;857;52.872;9.692;2023-07-28T04:06:44;1.53;;;0.53;;
1719;SDS011;857;52.872;9.692;2023-07-28T04:09:12;1.07;;;0.80;;
1719;SDS011;857;52.872;9.692;2023-07-28T04:11:40;1.13;;;0.80;;
1719;SDS011;857;52.872;9.692;2023-07-28T04:14:09;0.80;;;0.60;;
1719;SDS011;857;52.872;9.692;2023-07-28T04:16:36;0.80;;;0.60;;
1719;SDS011;857;52.872;9.692;2023-07-28T04:19:05;1.10;;;0.80;;
1719;SDS011;857;52.872;9.692;2023-07-28T04:21:32;0.70;;;0.50;;
1719;SDS011;857;52.872;9.692;2023-07-28T04:24:01;0.60;;;0.30;;
1719;SDS011;857;52.872;9.692;2023-07-28T04:26:30;0.40;;;0.30;;
1719;SDS011;857;52.872;9.692;2023-07-28T04:29:01;1.23;;;1.00;;
1719;SDS011;857;52.872;9.692;2023-07-28T04:31:29;1.00;;;0.50;;
1719;SDS011;857;52.872;9.692;2023-07-28T04:34:04;0.80;;;0.53;;
1719;SDS011;857;52.872;9.692;2023-07-28T04:37:04;0.90;;;0.70;;
1719;SDS011;857;52.872;9.692;2023-07-28T04:39:56;0.97;;;0.50;;
1719;SDS011;857;52.872;9.692;2023-07-28T04:42:29;1.03;;;0.80;;
1719;SDS011;857;52.872;9.692;2023-07-28T04:44:57;1.00;;;0.90;;
1719;SDS011;857;52.872;9.692;2023-07-28T04:47:24;0.90;;;0.70;;
1719;SDS011;857;52.872;9.692;2023-07-28T04:49:52;1.90;;;1.50;;
1719;SDS011;857;52.872;9.692;2023-07-28T04:52:58;1.30;;;1.17;;
1719;SDS011;857;52.872;9.692;2023-07-28T04:55:50;1.80;;;1.30;;
1719;SDS011;857;52.872;9.692;2023-07-28T04:58:18;3.30;;;2.07;;
1719;SDS011;857;52.872;9.692;2023-07-28T05:00:49;4.63;;;2.50;;
1719;SDS011;857;52.872;9.692;2023-07-28T05:03:17;5.00;;;3.30;;
1719;SDS011;857;52.872;9.692;2023-07-28T05:05:55;1.63;;;1.50;;
1719;SDS011;857;52.872;9.692;2023-07-28T05:08:22;3.70;;;2.60;;
1719;SDS011;857;52.872;9.692;2023-07-28T05:10:52;9.33;;;4.80;;
1719;SDS011;857;52.872;9.692;2023-07-28T05:13:20;6.23;;;3.80;;
1719;SDS011;857;52.872;9.692;2023-07-28T05:15:53;2.23;;;1.97;;
1719;SDS011;857;52.872;9.692;2023-07-28T05:18:43;6.90;;;5.10;;
1719;SDS011;857;52.872;9.692;2023-07-28T05:21:30;2.80;;;2.20;;
1719;SDS011;857;52.872;9.692;2023-07-28T05:23:57;8.90;;;5.60;;
1719;SDS011;857;52.872;9.692;2023-07-28T05:26:27;5.23;;;2.70;;
1719;SDS011;857;52.872;9.692;2023-07-28T05:28:54;6.50;;;4.70;;
1719;SDS011;857;52.872;9.692;2023-07-28T05:31:22;2.30;;;1.90;;
1719;SDS011;857;52.872;9.692;2023-07-28T05:33:50;8.77;;;5.70;;
1719;SDS011;857;52.872;9.692;2023-07-28T05:36:19;3.37;;;2.10;;
1719;SDS011;857;52.872;9.692;2023-07-28T05:38:48;3.33;;;2.37;;
1719;SDS011;857;52.872;9.692;2023-07-28T05:41:17;7.33;;;4.97;;
1719;SDS011;857;52.872;9.692;2023-07-28T05:43:46;5.47;;;4.17;;
1719;SDS011;857;52.872;9.692;2023-07-28T05:46:14;7.20;;;5.30;;
1719;SDS011;857;52.872;9.692;2023-07-28T05:48:42;7.00;;;4.80;;
1719;SDS011;857;52.872;9.692;2023-07-28T05:51:09;4.20;;;2.40;;
1719;SDS011;857;52.872;9.692;2023-07-28T05:53:37;9.90;;;6.37;;
1719;SDS011;857;52.872;9.692;2023-07-28T05:56:06;9.03;;;5.47;;
1719;SDS011;857;52.872;9.692;2023-07-28T05:58:34;2.70;;;1.90;;
1719;SDS011;857;52.872;9.692;2023-07-28T06:01:03;4.10;;;2.57;;
1719;SDS011;857;52.872;9.692;2023-07-28T06:04:09;4.57;;;3.20;;
1719;SDS011;857;52.872;9.692;2023-07-28T06:06:46;4.87;;;3.13;;
1719;SDS011;857;52.872;9.692;2023-07-28T06:09:16;7.47;;;5.20;;
1719;SDS011;857;52.872;9.692;2023-07-28T06:11:44;2.57;;;2.10;;
1719;SDS011;857;52.872;9.692;2023-07-28T06:14:12;6.70;;;4.67;;
1719;SDS011;857;52.872;9.692;2023-07-28T06:16:41;2.13;;;1.60;;
1719;SDS011;857;52.872;9.692;2023-07-28T06:19:09;7.77;;;4.67;;
1719;SDS011;857;52.872;9.692;2023-07-28T06:21:38;7.13;;;5.70;;
1719;SDS011;857;52.872;9.692;2023-07-28T06:24:06;3.40;;;2.70;;
1719;SDS011;857;52.872;9.692;2023-07-28T06:26:33;7.97;;;5.87;;
1719;SDS011;857;52.872;9.692;2023-07-28T06:29:01;3.30;;;2.50;;
1719;SDS011;857;52.872;9.692;2023-07-28T06:31:29;5.23;;;4.03;;
1719;SDS011;857;52.872;9.692;2023-07-28T06:33:58;6.17;;;4.80;;
1719;SDS011;857;52.872;9.692;2023-07-28T06:36:26;6.70;;;4.90;;
1719;SDS011;857;52.872;9.692;2023-07-28T06:38:53;7.57;;;5.80;;
1719;SDS011;857;52.872;9.692;2023-07-28T06:41:21;8.30;;;5.93;;
1719;SDS011;857;52.872;9.692;2023-07-28T06:43:56;11.33;;;7.20;;
1719;SDS011;857;52.872;9.692;2023-07-28T06:46:24;2.23;;;1.80;;
1719;SDS011;857;52.872;9.692;2023-07-28T06:48:52;9.67;;;6.60;;
1719;SDS011;857;52.872;9.692;2023-07-28T06:51:21;8.70;;;6.70;;
1719;SDS011;857;52.872;9.692;2023-07-28T06:53:48;3.03;;;2.77;;
1719;SDS011;857;52.872;9.692;2023-07-28T06:56:16;11.30;;;6.57;;
1719;SDS011;857;52.872;9.692;2023-07-28T06:58:44;4.70;;;3.50;;
1719;SDS011;857;52.872;9.692;2023-07-28T07:01:11;11.03;;;8.07;;
1719;SDS011;857;52.872;9.692;2023-07-28T07:03:39;3.50;;;2.73;;
1719;SDS011;857;52.872;9.692;2023-07-28T07:06:07;7.23;;;5.27;;
1719;SDS011;857;52.872;9.692;2023-07-28T07:08:36;8.50;;;6.00;;
1719;SDS011;857;52.872;9.692;2023-07-28T07:11:04;1.80;;;1.50;;
1719;SDS011;857;52.872;9.692;2023-07-28T07:13:32;2.30;;;1.63;;
1719;SDS011;857;52.872;9.692;2023-07-28T07:15:59;2.97;;;2.47;;
1719;SDS011;857;52.872;9.692;2023-07-28T07:18:27;9.53;;;6.60;;
1719;SDS011;857;52.872;9.692;2023-07-28T07:20:56;11.30;;;7.37;;
1719;SDS011;857;52.872;9.692;2023-07-28T07:23:24;10.93;;;7.00;;
1719;SDS011;857;52.872;9.692;2023-07-28T07:25:53;13.20;;;8.37;;
1719;SDS011;857;52.872;9.692;2023-07-28T07:28:20;13.40;;;8.20;;
1719;SDS011;857;52.872;9.692;2023-07-28T07:30:48;15.17;;;9.40;;
1719;SDS011;857;52.872;9.692;2023-07-28T07:33:16;12.50;;;6.53;;
1719;SDS011;857;52.872;9.692;2023-07-28T07:35:44;11.43;;;7.17;;
1719;SDS011;857;52.872;9.692;2023-07-28T07:38:12;7.67;;;5.37;;
1719;SDS011;857;52.872;9.692;2023-07-28T07:40:39;4.30;;;3.30;;
1719;SDS011;857;52.872;9.692;2023-07-28T07:43:09;5.37;;;4.33;;
1719;SDS011;857;52.872;9.692;2023-07-28T07:45:36;5.00;;;2.40;;
1719;SDS011;857;52.872;9.692;2023-07-28T07:48:04;15.00;;;8.80;;
1719;SDS011;857;52.872;9.692;2023-07-28T07:50:32;10.53;;;7.37;;
1719;SDS011;857;52.872;9.692;2023-07-28T07:52:59;2.90;;;2.30;;
1719;SDS011;857;52.872;9.692;2023-07-28T07:55:27;2.50;;;2.00;;
1719;SDS011;857;52.872;9.692;2023-07-28T07:57:56;8.90;;;6.60;;
1719;SDS011;857;52.872;9.692;2023-07-28T08:00:25;7.00;;;5.30;;
1719;SDS011;857;52.872;9.692;2023-07-28T08:02:54;5.47;;;4.13;;
1719;SDS011;857;52.872;9.692;2023-07-28T08:05:21;8.43;;;6.50;;
1719;SDS011;857;52.872;9.692;2023-07-28T08:07:49;2.87;;;2.03;;
1719;SDS011;857;52.872;9.692;2023-07-28T08:10:17;9.77;;;7.57;;
1719;SDS011;857;52.872;9.692;2023-07-28T08:12:44;9.33;;;7.50;;
1719;SDS011;857;52.872;9.692;2023-07-28T08:15:12;12.23;;;7.43;;
1719;SDS011;857;52.872;9.692;2023-07-28T08:17:41;3.20;;;2.90;;
1719;SDS011;857;52.872;9.692;2023-07-28T08:20:09;9.93;;;6.93;;
1719;SDS011;857;52.872;9.692;2023-07-28T08:22:37;9.20;;;6.57;;
1719;SDS011;857;52.872;9.692;2023-07-28T08:25:05;9.93;;;5.50;;
1719;SDS011;857;52.872;9.692;2023-07-28T08:27:33;11.40;;;8.33;;
1719;SDS011;857;52.872;9.692;2023-07-28T08:30:02;8.90;;;4.70;;
1719;SDS011;857;52.872;9.692;2023-07-28T08:32:30;8.97;;;6.77;;
1719;SDS011;857;52.872;9.692;2023-07-28T08:35:00;14.10;;;7.70;;
1719;SDS011;857;52.872;9.692;2023-07-28T08:37:28;4.13;;;3.50;;
1719;SDS011;857;52.872;9.692;2023-07-28T08:39:56;4.00;;;3.00;;
1719;SDS011;857;52.872;9.692;2023-07-28T08:42:24;2.90;;;2.37;;
1719;SDS011;857;52.872;9.692;2023-07-28T08:44:51;4.57;;;3.60;;
1719;SDS011;857;52.872;9.692;2023-07-28T08:47:19;11.20;;;8.10;;
1719;SDS011;857;52.872;9.692;2023-07-28T08:49:47;9.43;;;7.30;;
1719;SDS011;857;52.872;9.692;2023-07-28T08:52:17;13.07;;;8.40;;
1719;SDS011;857;52.872;9.692;2023-07-28T08:54:44;13.13;;;8.77;;
1719;SDS011;857;52.872;9.692;2023-07-28T08:57:12;11.37;;;7.47;;
1719;SDS011;857;52.872;9.692;2023-07-28T08:59:40;6.90;;;4.90;;
1719;SDS011;857;52.872;9.692;2023-07-28T09:02:13;5.30;;;4.57;;
1719;SDS011;857;52.872;9.692;2023-07-28T09:04:41;11.50;;;8.63;;
1719;SDS011;857;52.872;9.692;2023-07-28T09:07:09;3.57;;;3.27;;
1719;SDS011;857;52.872;9.692;2023-07-28T09:09:38;3.73;;;2.60;;
1719;SDS011;857;52.872;9.692;2023-07-28T09:12:07;8.93;;;7.43;;
1719;SDS011;857;52.872;9.692;2023-07-28T09:14:35;8.63;;;6.70;;
1719;SDS011;857;52.872;9.692;2023-07-28T09:17:07;5.10;;;3.67;;
1719;SDS011;857;52.872;9.692;2023-07-28T09:19:34;13.90;;;9.33;;
1719;SDS011;857;52.872;9.692;2023-07-28T09:22:02;14.07;;;10.10;;
1719;SDS011;857;52.872;9.692;2023-07-28T09:24:30;11.13;;;6.40;;
1719;SDS011;857;52.872;9.692;2023-07-28T09:27:00;15.30;;;11.30;;
1719;SDS011;857;52.872;9.692;2023-07-28T09:29:28;12.73;;;9.90;;
1719;SDS011;857;52.872;9.692;2023-07-28T09:32:02;17.57;;;12.03;;
1719;SDS011;857;52.872;9.692;2023-07-28T09:34:30;14.40;;;10.50;;
1719;SDS011;857;52.872;9.692;2023-07-28T09:36:58;15.43;;;10.13;;
1719;SDS011;857;52.872;9.692;2023-07-28T09:39:26;9.20;;;6.97;;
1719;SDS011;857;52.872;9.692;2023-07-28T09:41:54;12.73;;;10.30;;
1719;SDS011;857;52.872;9.692;2023-07-28T09:44:25;6.40;;;5.23;;
1719;SDS011;857;52.872;9.692;2023-07-28T09:46:53;9.57;;;6.27;;
1719;SDS011;857;52.872;9.692;2023-07-28T09:49:24;7.30;;;6.00;;
1719;SDS011;857;52.872;9.692;2023-07-28T09:51:54;11.13;;;9.17;;
1719;SDS011;857;52.872;9.692;2023-07-28T09:54:23;13.40;;;9.27;;
1719;SDS011;857;52.872;9.692;2023-07-28T09:56:54;15.40;;;9.47;;
1719;SDS011;857;52.872;9.692;2023-07-28T09:59:26;13.93;;;10.67;;
1719;SDS011;857;52.872;9.692;2023-07-28T10:01:55;9.33;;;7.00;;
1719;SDS011;857;52.872;9.692;2023-07-28T10:04:24;11.30;;;9.07;;
1719;SDS011;857;52.872;9.692;2023-07-28T10:06:51;10.17;;;7.83;;
1719;SDS011;857;52.872;9.692;2023-07-28T10:09:22;9.90;;;7.67;;
1719;SDS011;857;52.872;9.692;2023-07-28T10:11:50;5.67;;;4.77;;
1719;SDS011;857;52.872;9.692;2023-07-28T10:14:29;6.00;;;4.70;;
1719;SDS011;857;52.872;9.692;2023-07-28T10:16:57;4.70;;;3.80;;
1719;SDS011;857;52.872;9.692;2023-07-28T10:19:25;13.53;;;7.90;;
1719;SDS011;857;52.872;9.692;2023-07-28T10:21:59;3.70;;;3.30;;
1719;SDS011;857;52.872;9.692;2023-07-28T10:27:19;10.37;;;8.43;;
1719;SDS011;857;52.872;9.692;2023-07-28T10:29:57;9.50;;;8.50;;
1719;SDS011;857;52.872;9.692;2023-07-28T10:32:26;8.20;;;6.27;;
1719;SDS011;857;52.872;9.692;2023-07-28T10:35:00;6.00;;;4.97;;
1719;SDS011;857;52.872;9.692;2023-07-28T10:37:30;10.23;;;6.97;;
1719;SDS011;857;52.872;9.692;2023-07-28T10:42:47;8.33;;;6.43;;
1719;SDS011;857;52.872;9.692;2023-07-28T10:45:16;4.00;;;3.60;;
1719;SDS011;857;52.872;9.692;2023-07-28T10:47:44;4.80;;;4.13;;
1719;SDS011;857;52.872;9.692;2023-07-28T10:50:13;4.70;;;4.30;;
1719;SDS011;857;52.872;9.692;2023-07-28T10:52:41;3.73;;;3.33;;
1719;SDS011;857;52.872;9.692;2023-07-28T10:55:12;4.13;;;3.60;;
1719;SDS011;857;52.872;9.692;2023-07-28T10:57:41;9.10;;;6.93;;
1719;SDS011;857;52.872;9.692;2023-07-28T11:00:09;7.33;;;5.60;;
1719;SDS011;857;52.872;9.692;2023-07-28T11:02:40;5.47;;;4.60;;
1719;SDS011;857;52.872;9.692;2023-07-28T11:05:10;4.23;;;3.80;;
1719;SDS011;857;52.872;9.692;2023-07-28T11:07:40;4.47;;;4.03;;
1719;SDS011;857;52.872;9.692;2023-07-28T11:10:09;6.43;;;5.03;;
1719;SDS011;857;52.872;9.692;2023-07-28T11:12:41;10.60;;;6.67;;
1719;SDS011;857;52.872;9.692;2023-07-28T11:15:10;7.23;;;6.47;;
1719;SDS011;857;52.872;9.692;2023-07-28T11:17:39;6.10;;;4.77;;
1719;SDS011;857;52.872;9.692;2023-07-28T11:20:14;7.80;;;5.03;;
1719;SDS011;857;52.872;9.692;2023-07-28T11:22:42;6.07;;;5.53;;
1719;SDS011;857;52.872;9.692;2023-07-28T11:25:10;4.03;;;3.60;;
1719;SDS011;857;52.872;9.692;2023-07-28T11:27:38;7.30;;;5.63;;
1719;SDS011;857;52.872;9.692;2023-07-28T11:30:07;8.00;;;5.97;;
1719;SDS011;857;52.872;9.692;2023-07-28T11:32:36;4.37;;;3.97;;
1719;SDS011;857;52.872;9.692;2023-07-28T11:35:06;3.30;;;3.00;;
1719;SDS011;857;52.872;9.692;2023-07-28T11:37:35;6.63;;;5.40;;
1719;SDS011;857;52.872;9.692;2023-07-28T11:40:03;5.27;;;4.77;;
1719;SDS011;857;52.872;9.692;2023-07-28T11:42:32;4.87;;;3.73;;
1719;SDS011;857;52.872;9.692;2023-07-28T11:45:01;3.63;;;3.33;;
1719;SDS011;857;52.872;9.692;2023-07-28T11:47:29;4.20;;;3.50;;
1719;SDS011;857;52.872;9.692;2023-07-28T11:49:57;3.87;;;3.53;;
1719;SDS011;857;52.872;9.692;2023-07-28T11:52:30;4.07;;;3.20;;
1719;SDS011;857;52.872;9.692;2023-07-28T11:54:58;4.40;;;4.00;;
1719;SDS011;857;52.872;9.692;2023-07-28T11:57:26;4.97;;;4.57;;
1719;SDS011;857;52.872;9.692;2023-07-28T11:59:56;5.07;;;4.30;;
1719;SDS011;857;52.872;9.692;2023-07-28T12:02:24;3.20;;;2.90;;
1719;SDS011;857;52.872;9.692;2023-07-28T12:04:52;5.83;;;5.00;;
1719;SDS011;857;52.872;9.692;2023-07-28T12:07:26;3.57;;;2.67;;
1719;SDS011;857;52.872;9.692;2023-07-28T12:09:55;3.53;;;2.70;;
1719;SDS011;857;52.872;9.692;2023-07-28T12:12:26;3.47;;;3.07;;
1719;SDS011;857;52.872;9.692;2023-07-28T12:14:55;2.80;;;2.60;;
1719;SDS011;857;52.872;9.692;2023-07-28T12:17:25;3.00;;;2.80;;
1719;SDS011;857;52.872;9.692;2023-07-28T12:20:00;4.07;;;3.00;;
1719;SDS011;857;52.872;9.692;2023-07-28T12:22:31;2.97;;;2.77;;
1719;SDS011;857;52.872;9.692;2023-07-28T12:25:01;2.97;;;2.67;;
1719;SDS011;857;52.872;9.692;2023-07-28T12:27:30;2.87;;;2.57;;
1719;SDS011;857;52.872;9.692;2023-07-28T12:29:57;5.00;;;3.37;;
1719;SDS011;857;52.872;9.692;2023-07-28T12:32:25;6.60;;;4.40;;
1719;SDS011;857;52.872;9.692;2023-07-28T12:34:53;4.60;;;4.00;;
1719;SDS011;857;52.872;9.692;2023-07-28T12:37:20;3.17;;;2.90;;
1719;SDS011;857;52.872;9.692;2023-07-28T12:39:48;2.57;;;2.37;;
1719;SDS011;857;52.872;9.692;2023-07-28T12:42:17;2.90;;;2.70;;
1719;SDS011;857;52.872;9.692;2023-07-28T12:44:46;2.50;;;2.30;;
1719;SDS011;857;52.872;9.692;2023-07-28T12:47:14;4.50;;;4.10;;
1719;SDS011;857;52.872;9.692;2023-07-28T12:49:41;3.30;;;3.00;;
1719;SDS011;857;52.872;9.692;2023-07-28T12:52:09;3.60;;;3.30;;
1719;SDS011;857;52.872;9.692;2023-07-28T12:54:37;3.50;;;3.20;;
1719;SDS011;857;52.872;9.692;2023-07-28T12:57:05;3.20;;;2.90;;
1719;SDS011;857;52.872;9.692;2023-07-28T12:59:36;4.37;;;3.63;;
1719;SDS011;857;52.872;9.692;2023-07-28T13:02:04;4.27;;;3.87;;
1719;SDS011;857;52.872;9.692;2023-07-28T13:04:32;3.20;;;2.90;;
1719;SDS011;857;52.872;9.692;2023-07-28T13:06:59;2.63;;;2.43;;
1719;SDS011;857;52.872;9.692;2023-07-28T13:09:27;2.90;;;2.70;;
1719;SDS011;857;52.872;9.692;2023-07-28T13:11:55;3.27;;;2.97;;
1719;SDS011;857;52.872;9.692;2023-07-28T13:14:22;2.60;;;2.40;;
1719;SDS011;857;52.872;9.692;2023-07-28T13:16:51;2.43;;;2.23;;
1719;SDS011;857;52.872;9.692;2023-07-28T13:19:19;2.97;;;2.50;;
1719;SDS011;857;52.872;9.692;2023-07-28T13:21:47;3.13;;;2.90;;
1719;SDS011;857;52.872;9.692;2023-07-28T13:24:14;4.70;;;3.63;;
1719;SDS011;857;52.872;9.692;2023-07-28T13:26:42;2.70;;;2.50;;
1719;SDS011;857;52.872;9.692;2023-07-28T13:29:10;2.83;;;2.63;;
1719;SDS011;857;52.872;9.692;2023-07-28T13:31:37;4.67;;;4.17;;
1719;SDS011;857;52.872;9.692;2023-07-28T13:34:06;3.40;;;3.10;;
1719;SDS011;857;52.872;9.692;2023-07-28T13:36:34;3.00;;;2.80;;
1719;SDS011;857;52.872;9.692;2023-07-28T13:39:01;3.17;;;2.87;;
1719;SDS011;857;52.872;9.692;2023-07-28T13:41:29;2.97;;;2.77;;
1719;SDS011;857;52.872;9.692;2023-07-28T13:43:57;3.60;;;3.30;;
1719;SDS011;857;52.872;9.692;2023-07-28T13:46:24;2.77;;;2.57;;
1719;SDS011;857;52.872;9.692;2023-07-28T13:48:52;3.43;;;3.10;;
1719;SDS011;857;52.872;9.692;2023-07-28T13:51:21;2.97;;;2.67;;
1719;SDS011;857;52.872;9.692;2023-07-28T13:53:49;3.57;;;3.27;;
1719;SDS011;857;52.872;9.692;2023-07-28T13:56:16;4.10;;;3.73;;
1719;SDS011;857;52.872;9.692;2023-07-28T13:58:44;4.07;;;3.73;;
1719;SDS011;857;52.872;9.692;2023-07-28T14:01:12;2.80;;;2.60;;
1719;SDS011;857;52.872;9.692;2023-07-28T14:03:40;2.40;;;2.20;;
1719;SDS011;857;52.872;9.692;2023-07-28T14:06:07;2.50;;;2.30;;
1719;SDS011;857;52.872;9.692;2023-07-28T14:08:36;3.23;;;3.03;;
1719;SDS011;857;52.872;9.692;2023-07-28T14:11:04;4.23;;;3.83;;
1719;SDS011;857;52.872;9.692;2023-07-28T14:13:32;2.70;;;2.50;;
1719;SDS011;857;52.872;9.692;2023-07-28T14:16:00;3.27;;;2.60;;
1719;SDS011;857;52.872;9.692;2023-07-28T14:18:27;2.53;;;2.33;;
1719;SDS011;857;52.872;9.692;2023-07-28T14:20:55;2.67;;;2.47;;
1719;SDS011;857;52.872;9.692;2023-07-28T14:23:23;2.77;;;2.57;;
1719;SDS011;857;52.872;9.692;2023-07-28T14:25:52;2.67;;;2.47;;
1719;SDS011;857;52.872;9.692;2023-07-28T14:28:21;2.50;;;2.30;;
1719;SDS011;857;52.872;9.692;2023-07-28T14:30:49;3.40;;;2.67;;
1719;SDS011;857;52.872;9.692;2023-07-28T14:33:17;2.50;;;2.30;;
1719;SDS011;857;52.872;9.692;2023-07-28T14:35:45;3.43;;;2.93;;
1719;SDS011;857;52.872;9.692;2023-07-28T14:38:13;3.60;;;3.30;;
1719;SDS011;857;52.872;9.692;2023-07-28T14:40:41;3.23;;;2.97;;
1719;SDS011;857;52.872;9.692;2023-07-28T14:43:14;3.67;;;3.37;;
1719;SDS011;857;52.872;9.692;2023-07-28T14:45:42;2.37;;;2.17;;
1719;SDS011;857;52.872;9.692;2023-07-28T14:48:10;2.30;;;2.10;;
1719;SDS011;857;52.872;9.692;2023-07-28T14:50:37;2.23;;;2.03;;
1719;SDS011;857;52.872;9.692;2023-07-28T14:55:48;2.83;;;2.63;;
1719;SDS011;857;52.872;9.692;2023-07-28T14:58:17;3.33;;;2.63;;
1719;SDS011;857;52.872;9.692;2023-07-28T15:00:44;2.50;;;2.30;;
1719;SDS011;857;52.872;9.692;2023-07-28T15:03:12;2.50;;;2.30;;
1719;SDS011;857;52.872;9.692;2023-07-28T15:05:40;2.30;;;2.20;;
1719;SDS011;857;52.872;9.692;2023-07-28T15:08:08;2.73;;;2.30;;
1719;SDS011;857;52.872;9.692;2023-07-28T15:10:35;2.10;;;1.90;;
1719;SDS011;857;52.872;9.692;2023-07-28T15:13:03;2.13;;;2.00;;
1719;SDS011;857;52.872;9.692;2023-07-28T15:15:32;2.47;;;2.27;;
1719;SDS011;857;52.872;9.692;2023-07-28T15:18:00;2.50;;;2.30;;
1719;SDS011;857;52.872;9.692;2023-07-28T15:20:28;2.40;;;2.20;;
1719;SDS011;857;52.872;9.692;2023-07-28T15:22:55;2.53;;;2.33;;
1719;SDS011;857;52.872;9.692;2023-07-28T15:25:24;2.07;;;1.97;;
1719;SDS011;857;52.872;9.692;2023-07-28T15:27:52;3.40;;;3.10;;
1719;SDS011;857;52.872;9.692;2023-07-28T15:32:57;2.90;;;2.70;;
1719;SDS011;857;52.872;9.692;2023-07-28T15:35:25;4.50;;;3.33;;
1719;SDS011;857;52.872;9.692;2023-07-28T15:37:52;3.00;;;2.80;;
1719;SDS011;857;52.872;9.692;2023-07-28T15:40:20;4.77;;;4.10;;
1719;SDS011;857;52.872;9.692;2023-07-28T15:42:48;3.87;;;3.57;;
1719;SDS011;857;52.872;9.692;2023-07-28T15:45:16;4.67;;;4.27;;
1719;SDS011;857;52.872;9.692;2023-07-28T15:47:43;3.30;;;2.97;;
1719;SDS011;857;52.872;9.692;2023-07-28T15:50:13;5.27;;;4.77;;
1719;SDS011;857;52.872;9.692;2023-07-28T15:52:40;3.30;;;2.83;;